Time;durP1;ratioP1;P1;durP2;ratioP2;P2;SDS_P1;SDS_P2;PMS_P1;PMS_P2;Temp;Humidity;BMP_temperature;BMP_pressure;BME280_temperature;BME280_humidity;BME280_pressure;Samples;Min_cycle;Max_cycle;Signal;HPM_P1;HPM_P2
2024/01/15 00:02:12;;;;;;;92.90;46.47;;;4.20;72.80;;;;;;4999533;28;20049;-70
2024/01/15 00:04:39;;;;;;;97.82;46.90;;;4.30;72.70;;;;;;4999489;28;20121;-69
2024/01/15 00:07:06;;;;;;;89.93;44.85;;;4.30;72.80;;;;;;4999592;28;20089;-67
2024/01/15 00:09:32;;;;;;;94.03;45.55;;;4.30;72.90;;;;;;4999286;28;20358;-69
2024/01/15 00:11:58;;;;;;;92.95;44.85;;;4.30;72.90;;;;;;4999854;28;20073;-69
2024/01/15 00:14:24;;;;;;;90.43;46.17;;;4.30;72.90;;;;;;4999570;28;20022;-70
2024/01/15 00:16:51;;;;;;;88.03;44.08;;;4.30;73.00;;;;;;4999810;28;20034;-70
2024/01/15 00:19:18;;;;;;;94.70;44.72;;;4.30;72.90;;;;;;4999387;28;20114;-66
2024/01/15 00:21:45;;;;;;;91.35;46.40;;;4.40;72.80;;;;;;4999371;28;20440;-67
2024/01/15 00:24:12;;;;;;;92.07;44.42;;;4.30;73.00;;;;;;4999075;28;20400;-66
2024/01/15 00:26:38;;;;;;;85.80;43.45;;;4.40;72.80;;;;;;4998915;28;20061;-68
2024/01/15 00:29:04;;;;;;;88.10;44.90;;;4.40;72.70;;;;;;4999029;28;20015;-67
2024/01/15 00:31:30;;;;;;;89.78;44.58;;;4.40;72.80;;;;;;4998004;28;20058;-69
2024/01/15 00:33:57;;;;;;;93.60;44.38;;;4.30;72.70;;;;;;4999208;28;20033;-66
2024/01/15 00:36:23;;;;;;;86.65;42.90;;;4.40;72.70;;;;;;4999155;28;20049;-68
2024/01/15 00:38:49;;;;;;;93.55;44.35;;;4.40;72.70;;;;;;4999315;28;20026;-68
2024/01/15 00:41:15;;;;;;;85.10;43.40;;;4.40;72.90;;;;;;4998786;28;20363;-70
2024/01/15 00:43:41;;;;;;;85.78;43.42;;;4.40;72.90;;;;;;4998176;28;20030;-67
2024/01/15 00:46:08;;;;;;;87.03;41.17;;;4.40;72.90;;;;;;4998778;28;20026;-66
2024/01/15 00:48:34;;;;;;;85.72;45.20;;;4.40;72.80;;;;;;4998460;28;20463;-63
2024/01/15 00:51:00;;;;;;;78.47;40.88;;;4.40;72.80;;;;;;4998854;28;20022;-69
2024/01/15 00:53:26;;;;;;;85.10;43.38;;;4.40;72.90;;;;;;4998483;28;20432;-70
2024/01/15 00:55:52;;;;;;;88.97;43.72;;;4.40;72.80;;;;;;4998567;28;20026;-68
2024/01/15 00:58:19;;;;;;;84.53;44.15;;;4.40;73.00;;;;;;4997604;28;20103;-70
2024/01/15 01:00:45;;;;;;;79.55;40.20;;;4.40;72.90;;;;;;4998989;28;20030;-69
2024/01/15 01:03:10;;;;;;;87.97;45.83;;;4.40;73.00;;;;;;4998953;28;20420;-67
2024/01/15 01:05:37;;;;;;;96.25;46.20;;;4.40;72.80;;;;;;4998427;28;20027;-66
2024/01/15 01:08:03;;;;;;;107.90;50.42;;;4.40;72.80;;;;;;4998407;28;20042;-69
2024/01/15 01:10:30;;;;;;;95.55;45.05;;;4.40;72.80;;;;;;4998526;28;20027;-65
2024/01/15 01:12:56;;;;;;;94.50;46.95;;;4.40;72.70;;;;;;4998175;28;20034;-71
2024/01/15 01:15:22;;;;;;;95.05;47.60;;;4.40;72.80;;;;;;4998190;28;20018;-66
2024/01/15 01:17:48;;;;;;;100.93;47.42;;;4.40;72.70;;;;;;4998079;28;20506;-67
2024/01/15 01:20:15;;;;;;;90.80;45.53;;;4.40;72.70;;;;;;4998627;28;20034;-67
2024/01/15 01:22:41;;;;;;;87.22;46.13;;;4.40;72.60;;;;;;4998352;28;20038;-68
2024/01/15 01:25:07;;;;;;;95.65;47.15;;;4.40;72.80;;;;;;4998271;28;20384;-69
2024/01/15 01:27:35;;;;;;;92.20;44.90;;;4.40;72.80;;;;;;4997888;28;20041;-68
2024/01/15 01:30:01;;;;;;;88.22;45.35;;;4.40;72.70;;;;;;4997919;28;20026;-65
2024/01/15 01:32:27;;;;;;;90.75;45.28;;;4.40;72.80;;;;;;4996883;28;20027;-70
2024/01/15 01:34:52;;;;;;;90.90;43.95;;;4.30;72.80;;;;;;4998115;28;20085;-70
2024/01/15 01:37:18;;;;;;;86.57;44.63;;;4.30;72.90;;;;;;4998242;28;20441;-70
2024/01/15 01:39:44;;;;;;;89.88;43.47;;;4.30;72.80;;;;;;4996747;28;20033;-68
2024/01/15 01:42:11;;;;;;;89.40;43.45;;;4.30;72.60;;;;;;4997930;28;20076;-66
2024/01/15 01:44:37;;;;;;;88.57;44.47;;;4.30;72.90;;;;;;4997871;28;20113;-69
2024/01/15 01:47:04;;;;;;;96.13;46.33;;;4.30;72.70;;;;;;4996647;28;20463;-70
2024/01/15 01:49:31;;;;;;;92.32;44.67;;;4.30;72.90;;;;;;4997429;28;20045;-69
2024/01/15 01:51:59;;;;;;;92.53;46.58;;;4.30;72.80;;;;;;4996873;28;20157;-69
2024/01/15 01:54:31;;;;;;;70.70;37.78;;;4.30;72.90;;;;;;4996469;28;20030;-68
2024/01/15 01:56:58;;;;;;;85.82;42.58;;;4.30;72.70;;;;;;4997675;28;20033;-67
2024/01/15 01:59:27;;;;;;;88.60;45.03;;;4.20;72.90;;;;;;4997102;28;20054;-65
2024/01/15 02:01:54;;;;;;;78.72;41.50;;;4.30;72.90;;;;;;4997296;28;20440;-65
2024/01/15 02:04:24;;;;;;;81.68;41.45;;;4.30;72.80;;;;;;4997520;28;20026;-67
2024/01/15 02:06:50;;;;;;;76.00;39.35;;;4.30;72.60;;;;;;4997149;28;20034;-65
2024/01/15 02:09:20;;;;;;;81.90;40.60;;;4.20;72.60;;;;;;4997067;28;20380;-68
2024/01/15 02:11:49;;;;;;;83.25;41.67;;;4.20;72.60;;;;;;4997133;28;20050;-65
2024/01/15 02:14:16;;;;;;;83.47;43.83;;;4.20;72.60;;;;;;4997100;28;20019;-64
2024/01/15 02:16:42;;;;;;;80.68;40.85;;;4.20;72.70;;;;;;4997554;28;20108;-66
2024/01/15 02:19:14;;;;;;;80.95;39.83;;;4.10;72.50;;;;;;4997428;28;20026;-67
2024/01/15 02:21:40;;;;;;;87.68;43.25;;;4.10;72.50;;;;;;4997488;28;20062;-67
2024/01/15 02:24:06;;;;;;;80.97;40.63;;;4.10;72.40;;;;;;4997168;28;20050;-66
2024/01/15 02:26:35;;;;;;;86.35;42.45;;;4.00;72.30;;;;;;4997107;28;20057;-66
2024/01/15 02:29:02;;;;;;;82.53;41.42;;;4.00;72.50;;;;;;4996657;28;20081;-68
2024/01/15 02:31:28;;;;;;;86.18;42.53;;;4.00;72.40;;;;;;4996125;28;20069;-64
2024/01/15 02:33:54;;;;;;;82.07;42.08;;;3.90;72.20;;;;;;4997243;28;20031;-66
2024/01/15 02:36:20;;;;;;;86.82;41.55;;;3.90;72.60;;;;;;4996934;28;20037;-66
2024/01/15 02:38:46;;;;;;;87.22;43.28;;;3.90;72.50;;;;;;4996661;28;20105;-68
2024/01/15 02:41:14;;;;;;;81.07;38.90;;;3.90;72.60;;;;;;4995616;28;20125;-70
2024/01/15 02:43:41;;;;;;;77.47;40.30;;;3.90;72.40;;;;;;4996464;28;20038;-64
2024/01/15 02:46:07;;;;;;;84.68;40.90;;;3.80;72.40;;;;;;4996460;28;20045;-64
2024/01/15 02:48:34;;;;;;;80.25;40.67;;;3.80;72.50;;;;;;4996553;28;20026;-69
2024/01/15 02:51:02;;;;;;;85.07;42.90;;;3.80;72.40;;;;;;4996638;28;20030;-70
2024/01/15 02:53:28;;;;;;;84.78;42.15;;;3.80;72.40;;;;;;4996337;28;20038;-68
2024/01/15 02:55:54;;;;;;;76.43;38.60;;;3.70;72.20;;;;;;4996403;28;20034;-70
2024/01/15 02:58:20;;;;;;;85.15;42.60;;;3.60;72.30;;;;;;4996346;28;20061;-68
2024/01/15 03:00:46;;;;;;;81.70;42.17;;;3.60;72.50;;;;;;4996294;28;20440;-69
2024/01/15 03:03:12;;;;;;;78.22;39.15;;;3.50;72.50;;;;;;4995229;28;20041;-70
2024/01/15 03:05:38;;;;;;;78.75;37.47;;;3.50;72.50;;;;;;4996710;28;20026;-66
2024/01/15 03:08:04;;;;;;;73.35;37.90;;;3.50;72.40;;;;;;4996539;28;20114;-69
2024/01/15 03:10:30;;;;;;;75.75;38.15;;;3.50;72.40;;;;;;4996164;28;20026;-69
2024/01/15 03:12:57;;;;;;;80.00;37.85;;;3.50;72.50;;;;;;4996338;28;20018;-64
2024/01/15 03:15:23;;;;;;;79.63;39.70;;;3.50;72.60;;;;;;4996299;28;20026;-68
2024/01/15 03:17:49;;;;;;;83.30;43.45;;;3.50;72.60;;;;;;4995998;28;20022;-71
2024/01/15 03:20:15;;;;;;;78.65;39.28;;;3.40;72.70;;;;;;4995794;28;20034;-66
2024/01/15 03:22:41;;;;;;;76.80;39.63;;;3.40;72.80;;;;;;4995951;28;20023;-68
2024/01/15 03:25:07;;;;;;;80.60;39.60;;;3.40;72.80;;;;;;4995886;28;20057;-68
2024/01/15 03:27:33;;;;;;;77.97;39.70;;;3.40;72.60;;;;;;4996008;28;20030;-66
2024/01/15 03:29:59;;;;;;;83.93;39.75;;;3.30;72.60;;;;;;4995840;28;20026;-66
2024/01/15 03:32:25;;;;;;;79.45;40.60;;;3.30;72.50;;;;;;4996379;28;20023;-67
2024/01/15 03:34:52;;;;;;;78.18;38.05;;;3.30;73.00;;;;;;4994987;28;20329;-66
2024/01/15 03:37:18;;;;;;;75.00;40.08;;;3.20;72.70;;;;;;4995985;28;20084;-69
2024/01/15 03:39:44;;;;;;;77.97;39.00;;;3.20;72.70;;;;;;4995695;28;20117;-66
2024/01/15 03:42:10;;;;;;;75.45;38.45;;;3.20;72.70;;;;;;4996264;28;20026;-69
2024/01/15 03:44:36;;;;;;;78.38;37.25;;;3.10;72.50;;;;;;4996238;28;20040;-70
2024/01/15 03:47:01;;;;;;;77.55;37.55;;;3.10;72.50;;;;;;4995633;28;20027;-66
2024/01/15 03:49:27;;;;;;;81.97;40.60;;;3.00;72.80;;;;;;4995670;28;20022;-70
2024/01/15 03:51:53;;;;;;;79.35;39.28;;;3.00;72.80;;;;;;4995708;28;20084;-69
2024/01/15 03:54:19;;;;;;;69.90;35.20;;;2.90;72.70;;;;;;4995900;28;20026;-69
2024/01/15 03:56:45;;;;;;;77.60;38.97;;;2.90;72.70;;;;;;4996156;28;20105;-67
2024/01/15 03:59:11;;;;;;;81.28;39.45;;;2.90;72.80;;;;;;4995399;28;20054;-69
2024/01/15 04:01:37;;;;;;;72.10;37.17;;;2.90;72.80;;;;;;4995825;28;20470;-69
2024/01/15 04:04:03;;;;;;;76.35;37.17;;;2.90;73.00;;;;;;4995523;28;20506;-68
2024/01/15 04:06:29;;;;;;;69.40;34.50;;;2.80;73.00;;;;;;4995806;28;20076;-68
2024/01/15 04:08:55;;;;;;;79.65;35.78;;;2.80;73.10;;;;;;4995372;28;20034;-70
2024/01/15 04:11:22;;;;;;;64.97;32.28;;;2.80;72.90;;;;;;4996020;28;20034;-68
2024/01/15 04:13:48;;;;;;;68.72;36.05;;;2.80;72.80;;;;;;4995753;28;20030;-65
2024/01/15 04:16:14;;;;;;;66.80;34.17;;;2.80;73.10;;;;;;4995715;28;20049;-67
2024/01/15 04:18:40;;;;;;;68.90;33.30;;;2.80;72.80;;;;;;4995866;28;20030;-67
2024/01/15 04:21:06;;;;;;;67.30;34.35;;;2.70;72.70;;;;;;4995708;28;20470;-67
2024/01/15 04:23:33;;;;;;;77.22;35.65;;;2.70;73.00;;;;;;4995461;28;20035;-67
2024/01/15 04:25:59;;;;;;;66.95;32.22;;;2.70;73.10;;;;;;4995404;28;20060;-67
2024/01/15 04:28:25;;;;;;;73.72;34.15;;;2.70;73.20;;;;;;4995234;28;20040;-70
2024/01/15 04:30:51;;;;;;;61.00;31.52;;;2.70;73.10;;;;;;4995637;28;20023;-67
2024/01/15 04:33:17;;;;;;;68.63;32.03;;;2.60;72.60;;;;;;4997624;28;20026;-68
2024/01/15 04:35:42;;;;;;;65.10;31.48;;;2.60;72.70;;;;;;4999232;28;20015;-66
2024/01/15 04:38:08;;;;;;;68.40;33.20;;;2.60;72.90;;;;;;4999188;28;20030;-67
2024/01/15 04:40:34;;;;;;;63.38;32.83;;;2.60;73.10;;;;;;4998914;28;20092;-69
2024/01/15 04:43:00;;;;;;;66.85;31.40;;;2.50;73.20;;;;;;4999079;28;20026;-69
2024/01/15 04:45:28;;;;;;;62.45;28.00;;;2.40;73.00;;;;;;4998833;28;20064;-67
2024/01/15 04:47:57;;;;;;;58.15;30.08;;;2.30;73.10;;;;;;4998539;28;20085;-68
2024/01/15 04:50:24;;;;;;;62.65;29.38;;;2.20;73.10;;;;;;4997703;28;20430;-71
2024/01/15 04:52:50;;;;;;;65.57;31.88;;;2.20;73.30;;;;;;4998660;28;20483;-66
2024/01/15 04:55:16;;;;;;;61.47;31.20;;;2.20;73.60;;;;;;4999091;28;20061;-70
2024/01/15 04:57:42;;;;;;;66.50;29.77;;;2.20;73.60;;;;;;4998618;28;20062;-68
2024/01/15 05:00:08;;;;;;;61.75;28.95;;;2.30;73.80;;;;;;4998798;28;20042;-64
2024/01/15 05:02:34;;;;;;;62.75;30.30;;;2.30;73.60;;;;;;4998436;28;20101;-66
2024/01/15 05:05:00;;;;;;;68.35;30.77;;;2.30;73.50;;;;;;4998912;28;20118;-69
2024/01/15 05:07:26;;;;;;;64.40;29.75;;;2.30;73.50;;;;;;4998193;28;20324;-70
2024/01/15 05:09:52;;;;;;;59.05;28.10;;;2.30;73.40;;;;;;4998611;28;20088;-65
2024/01/15 05:12:17;;;;;;;65.53;32.17;;;2.30;73.30;;;;;;4998247;28;20033;-67
2024/01/15 05:14:44;;;;;;;59.58;29.38;;;2.30;73.50;;;;;;4998267;28;20053;-70
2024/01/15 05:17:09;;;;;;;71.13;32.42;;;2.30;73.70;;;;;;4998429;28;20468;-68
2024/01/15 05:19:35;;;;;;;63.22;31.45;;;2.30;73.80;;;;;;4998076;28;20034;-65
2024/01/15 05:22:01;;;;;;;66.97;33.30;;;2.30;73.40;;;;;;4998399;28;20452;-68
2024/01/15 05:24:27;;;;;;;63.72;31.20;;;2.30;73.50;;;;;;4998283;28;20041;-69
2024/01/15 05:26:53;;;;;;;65.15;31.77;;;2.20;73.50;;;;;;4998190;28;20038;-67
2024/01/15 05:29:19;;;;;;;63.33;29.55;;;2.20;73.30;;;;;;4998438;28;20305;-67
2024/01/15 05:31:45;;;;;;;64.65;30.38;;;2.20;73.40;;;;;;4997878;28;20035;-67
2024/01/15 05:34:11;;;;;;;66.35;32.42;;;2.20;73.20;;;;;;4997859;28;20026;-68
2024/01/15 05:36:37;;;;;;;63.53;32.00;;;2.20;73.30;;;;;;4997804;28;20026;-67
2024/01/15 05:39:03;;;;;;;59.60;29.35;;;2.20;73.70;;;;;;4997845;28;20445;-68
2024/01/15 05:41:29;;;;;;;65.47;31.17;;;2.20;73.30;;;;;;4998265;28;20038;-66
2024/01/15 05:43:55;;;;;;;58.60;26.05;;;2.20;73.60;;;;;;4997519;28;20069;-65
2024/01/15 05:46:20;;;;;;;65.63;27.67;;;2.20;73.70;;;;;;4997578;28;20030;-67
2024/01/15 05:48:46;;;;;;;62.35;27.98;;;2.20;73.60;;;;;;4997436;28;20026;-68
2024/01/15 05:51:12;;;;;;;63.50;28.52;;;2.30;73.60;;;;;;4998087;28;20337;-67
2024/01/15 05:53:40;;;;;;;60.08;29.75;;;2.30;73.70;;;;;;4997748;28;20025;-70
2024/01/15 05:56:06;;;;;;;62.38;28.88;;;2.30;73.60;;;;;;5243736;23;20078;-69
2024/01/15 05:58:32;;;;;;;63.90;29.42;;;2.30;73.50;;;;;;4978026;28;20023;-68
2024/01/15 06:00:58;;;;;;;60.15;29.02;;;2.20;73.40;;;;;;4978180;28;20046;-67
2024/01/15 06:03:23;;;;;;;60.20;27.55;;;2.20;73.30;;;;;;4978374;28;20483;-67
2024/01/15 06:05:49;;;;;;;64.82;28.60;;;2.20;73.20;;;;;;4977817;28;20364;-70
2024/01/15 06:08:15;;;;;;;51.33;25.63;;;2.20;73.50;;;;;;4977783;28;20445;-68
2024/01/15 06:10:41;;;;;;;57.05;26.88;;;2.20;73.50;;;;;;4978266;28;20023;-70
2024/01/15 06:13:07;;;;;;;52.15;25.02;;;2.30;73.50;;;;;;4977699;28;20034;-70
2024/01/15 06:15:33;;;;;;;55.78;24.88;;;2.20;73.30;;;;;;4976640;28;20046;-67
2024/01/15 06:17:59;;;;;;;53.20;24.73;;;2.30;73.50;;;;;;4977638;28;20031;-68
2024/01/15 06:20:25;;;;;;;56.45;26.02;;;2.20;73.50;;;;;;4977612;28;20030;-68
2024/01/15 06:22:51;;;;;;;50.70;24.05;;;2.30;73.60;;;;;;4978072;28;20097;-66
2024/01/15 06:25:17;;;;;;;51.70;25.83;;;2.30;73.40;;;;;;4977981;28;20049;-69
2024/01/15 06:27:43;;;;;;;54.28;25.83;;;2.30;73.30;;;;;;4977408;28;20019;-69
2024/01/15 06:30:09;;;;;;;50.55;23.60;;;2.30;73.60;;;;;;4977365;28;20038;-66
2024/01/15 06:32:35;;;;;;;55.08;24.48;;;2.30;73.40;;;;;;4977290;28;20023;-66
2024/01/15 06:35:01;;;;;;;55.25;23.58;;;2.30;73.30;;;;;;4977252;28;20027;-68
2024/01/15 06:37:27;;;;;;;56.50;25.85;;;2.30;73.00;;;;;;4977533;28;20019;-66
2024/01/15 06:39:53;;;;;;;54.13;23.83;;;2.30;73.10;;;;;;4977259;28;20043;-67
2024/01/15 06:42:19;;;;;;;55.28;24.73;;;2.30;73.00;;;;;;4977212;28;20511;-66
2024/01/15 06:44:45;;;;;;;48.08;22.50;;;2.20;72.90;;;;;;4977258;28;20043;-66
2024/01/15 06:47:11;;;;;;;49.22;22.70;;;2.20;73.20;;;;;;4977282;28;20027;-68
2024/01/15 06:49:37;;;;;;;56.40;23.77;;;2.20;73.10;;;;;;4977226;28;20118;-68
2024/01/15 06:52:03;;;;;;;48.88;22.42;;;2.20;73.10;;;;;;4977017;28;20353;-66
2024/01/15 06:54:29;;;;;;;58.40;28.35;;;2.20;73.00;;;;;;4976477;28;20437;-66
2024/01/15 06:56:55;;;;;;;53.72;25.88;;;2.20;73.10;;;;;;4975354;28;20050;-67
2024/01/15 06:59:21;;;;;;;54.05;24.25;;;2.10;73.00;;;;;;4975981;28;20421;-67
2024/01/15 07:01:46;;;;;;;57.55;27.92;;;2.20;73.20;;;;;;4976368;28;20038;-70
2024/01/15 07:04:13;;;;;;;58.63;26.90;;;2.10;73.40;;;;;;4977001;28;20440;-67
2024/01/15 07:06:39;;;;;;;60.47;27.48;;;2.20;73.50;;;;;;5265529;23;20058;-69
2024/01/15 07:09:06;;;;;;;63.92;29.35;;;2.20;73.60;;;;;;5015668;28;20056;-67
2024/01/15 07:11:31;;;;;;;53.10;24.73;;;2.20;73.60;;;;;;5016008;28;20482;-69
2024/01/15 07:13:57;;;;;;;54.92;26.85;;;2.20;73.50;;;;;;5264329;23;20484;-67
2024/01/15 07:16:23;;;;;;;57.78;27.55;;;2.30;73.80;;;;;;4963130;28;20504;-67
2024/01/15 07:18:49;;;;;;;56.67;26.92;;;2.30;73.80;;;;;;4957539;28;20033;-66
2024/01/15 07:21:15;;;;;;;56.50;27.63;;;2.30;73.70;;;;;;4957788;28;20041;-68
2024/01/15 07:26:16;;;;;;;67.05;29.05;;;2.30;74.20;;;;;;5087580;23;20117;-68
2024/01/15 07:28:42;;;;;;;57.38;24.85;;;2.40;74.40;;;;;;5222390;23;20067;-65
2024/01/15 07:31:09;;;;;;;59.58;26.52;;;2.40;74.20;;;;;;4956736;28;20031;-65
2024/01/15 07:33:34;;;;;;;53.22;25.65;;;2.40;74.10;;;;;;4957432;28;20027;-67
2024/01/15 07:36:02;;;;;;;55.75;25.52;;;2.40;74.10;;;;;;4957324;28;20052;-65
2024/01/15 07:38:28;;;;;;;53.00;26.33;;;2.50;74.00;;;;;;4957214;28;20086;-65
2024/01/15 07:40:56;;;;;;;56.72;27.05;;;2.60;74.20;;;;;;4957585;28;20362;-69
2024/01/15 07:43:22;;;;;;;61.35;29.23;;;2.60;74.20;;;;;;4957486;28;20027;-66
2024/01/15 07:45:49;;;;;;;57.67;30.25;;;2.70;74.20;;;;;;4956940;28;20034;-69
2024/01/15 07:48:14;;;;;;;64.50;31.45;;;2.70;74.00;;;;;;4956360;28;20112;-67
2024/01/15 07:50:40;;;;;;;94.97;49.08;;;2.80;74.00;;;;;;4972048;28;20031;-64
2024/01/15 07:53:07;;;;;;;94.10;39.03;;;2.80;74.20;;;;;;4956750;28;20031;-68
2024/01/15 07:55:33;;;;;;;115.07;42.42;;;2.90;74.30;;;;;;4956690;28;20102;-65
2024/01/15 07:57:59;;;;;;;82.72;35.72;;;2.90;73.80;;;;;;4957116;28;20129;-69
2024/01/15 08:00:25;;;;;;;76.32;34.47;;;2.90;74.20;;;;;;4957032;28;20015;-69
2024/01/15 08:02:52;;;;;;;70.05;30.70;;;2.90;74.30;;;;;;4956700;28;20377;-71
2024/01/15 08:05:19;;;;;;;64.75;30.38;;;2.90;74.50;;;;;;4956823;28;20505;-67
2024/01/15 08:07:45;;;;;;;63.30;29.65;;;2.90;74.60;;;;;;4960018;28;20043;-68
2024/01/15 08:10:13;;;;;;;70.07;34.53;;;2.90;74.50;;;;;;4960614;28;20472;-69
2024/01/15 08:12:39;;;;;;;72.88;34.00;;;2.90;74.50;;;;;;4960544;28;20038;-69
2024/01/15 08:15:06;;;;;;;73.60;34.35;;;2.90;74.40;;;;;;4961016;28;20030;-69
2024/01/15 08:17:32;;;;;;;71.03;32.13;;;2.90;74.40;;;;;;4960648;28;20031;-70
2024/01/15 08:19:59;;;;;;;82.85;34.75;;;2.90;74.20;;;;;;4960680;29;20034;-69
2024/01/15 08:22:25;;;;;;;84.60;36.70;;;3.00;74.20;;;;;;4960536;28;20045;-69
2024/01/15 08:24:51;;;;;;;72.95;32.55;;;3.00;74.50;;;;;;4960855;28;20373;-70
2024/01/15 08:27:18;;;;;;;74.22;33.63;;;3.10;74.50;;;;;;4960160;28;20062;-72
2024/01/15 08:29:44;;;;;;;76.50;37.25;;;3.10;74.80;;;;;;4960077;28;20079;-66
2024/01/15 08:32:13;;;;;;;82.72;37.20;;;3.20;74.50;;;;;;4960239;28;20472;-69
2024/01/15 08:34:40;;;;;;;72.05;34.17;;;3.30;74.40;;;;;;4960076;28;20023;-67
2024/01/15 08:37:05;;;;;;;61.05;29.15;;;3.30;74.40;;;;;;4960166;28;20106;-68
2024/01/15 08:39:31;;;;;;;70.50;31.48;;;3.40;74.30;;;;;;4959822;28;20107;-70
2024/01/15 08:41:57;;;;;;;72.47;33.05;;;3.50;74.10;;;;;;4959943;28;20163;-66
2024/01/15 08:44:23;;;;;;;76.35;33.10;;;3.50;74.10;;;;;;4959988;28;20039;-66
2024/01/15 08:46:49;;;;;;;127.30;50.38;;;3.60;73.90;;;;;;4959972;28;20019;-67
2024/01/15 08:51:40;;;;;;;70.07;30.65;;;3.70;73.90;;;;;;5598073;23;20106;-74
2024/01/15 08:54:08;;;;;;;63.10;30.30;;;3.80;73.70;;;;;;4979772;28;20026;-73
2024/01/15 08:56:34;;;;;;;64.70;29.27;;;3.80;73.60;;;;;;4979206;28;20086;-70
2024/01/15 08:59:00;;;;;;;67.47;32.15;;;3.90;73.70;;;;;;4979394;28;20074;-66
2024/01/15 09:01:26;;;;;;;71.18;32.90;;;4.00;73.90;;;;;;4979209;28;20034;-73
2024/01/15 09:03:52;;;;;;;63.33;29.17;;;4.00;73.70;;;;;;4978926;28;20456;-72
2024/01/15 09:06:19;;;;;;;62.10;29.73;;;4.20;73.70;;;;;;4979161;28;20106;-65
2024/01/15 09:08:45;;;;;;;58.30;28.38;;;4.30;73.80;;;;;;4978873;28;20019;-68
2024/01/15 09:11:12;;;;;;;70.57;33.58;;;4.40;73.50;;;;;;4979408;28;20027;-67
2024/01/15 09:13:38;;;;;;;69.22;32.95;;;4.60;73.70;;;;;;4978833;28;20023;-67
2024/01/15 09:16:04;;;;;;;55.70;27.75;;;4.70;73.70;;;;;;4979017;28;20440;-67
2024/01/15 09:18:30;;;;;;;71.38;31.58;;;4.80;73.50;;;;;;4978264;28;20023;-67
2024/01/15 09:20:56;;;;;;;64.70;31.10;;;5.00;73.40;;;;;;4979146;28;20081;-65
2024/01/15 09:23:22;;;;;;;73.53;34.38;;;5.10;73.30;;;;;;4978687;28;20100;-65
2024/01/15 09:25:48;;;;;;;83.72;35.40;;;5.20;72.90;;;;;;4978919;28;20027;-66
2024/01/15 09:28:14;;;;;;;65.72;31.63;;;5.40;72.60;;;;;;4978454;28;20113;-67
2024/01/15 09:30:40;;;;;;;73.18;33.05;;;5.50;72.30;;;;;;4978805;28;20070;-67
2024/01/15 09:33:06;;;;;;;68.45;31.23;;;5.60;72.10;;;;;;4978455;28;20015;-67
2024/01/15 09:35:32;;;;;;;66.43;30.85;;;5.60;72.00;;;;;;4978964;28;20336;-66
2024/01/15 09:37:58;;;;;;;59.95;27.85;;;5.70;72.00;;;;;;4978425;28;20038;-66
2024/01/15 09:40:28;;;;;;;55.78;26.70;;;5.80;71.60;;;;;;4978623;28;20062;-66
2024/01/15 09:42:54;;;;;;;54.47;26.23;;;5.90;70.80;;;;;;4978772;28;20089;-68
2024/01/15 09:45:20;;;;;;;61.35;28.58;;;5.90;70.50;;;;;;4978810;28;20026;-67
2024/01/15 09:47:46;;;;;;;58.17;28.67;;;6.00;70.30;;;;;;4978712;28;20446;-67
2024/01/15 09:50:13;;;;;;;52.58;25.15;;;6.10;70.40;;;;;;4978480;28;20027;-66
2024/01/15 09:52:40;;;;;;;46.45;23.88;;;6.10;70.50;;;;;;4978361;28;20388;-66
2024/01/15 09:55:07;;;;;;;54.88;25.65;;;6.30;70.10;;;;;;4978399;28;20102;-69
2024/01/15 09:57:33;;;;;;;46.30;23.52;;;6.40;69.80;;;;;;4978029;28;20066;-67
2024/01/15 10:00:03;;;;;;;46.42;22.23;;;6.50;69.40;;;;;;4978095;28;20058;-68
2024/01/15 10:02:30;;;;;;;54.10;24.65;;;6.60;69.50;;;;;;4978180;28;20034;-66
2024/01/15 10:04:56;;;;;;;47.60;23.42;;;6.70;69.10;;;;;;4978215;28;20528;-67
2024/01/15 10:07:25;;;;;;;49.90;25.10;;;6.80;69.30;;;;;;4977810;28;20034;-65
2024/01/15 10:09:51;;;;;;;59.30;26.40;;;6.90;69.20;;;;;;4978143;28;20058;-66
2024/01/15 10:12:17;;;;;;;53.63;27.45;;;7.00;69.00;;;;;;4977717;28;20022;-67
2024/01/15 10:14:43;;;;;;;61.00;28.38;;;7.10;68.80;;;;;;4977717;28;20035;-66
2024/01/15 10:17:15;;;;;;;56.45;27.38;;;7.20;68.60;;;;;;4977676;28;20077;-66
2024/01/15 10:19:42;;;;;;;52.78;26.25;;;7.30;68.20;;;;;;4977668;28;20097;-66
2024/01/15 10:22:09;;;;;;;58.22;29.02;;;7.40;67.90;;;;;;4977804;28;20030;-67
2024/01/15 10:24:38;;;;;;;60.35;29.02;;;7.40;68.10;;;;;;4977821;28;20073;-66
2024/01/15 10:27:10;;;;;;;54.92;27.50;;;7.50;67.50;;;;;;4977689;28;20441;-67
2024/01/15 10:29:37;;;;;;;56.65;26.55;;;7.60;67.70;;;;;;4977978;28;20031;-66
2024/01/15 10:32:08;;;;;;;53.08;25.73;;;7.70;67.60;;;;;;4977522;28;20039;-67
2024/01/15 10:34:37;;;;;;;61.95;29.02;;;7.80;67.50;;;;;;4977384;28;20044;-67
2024/01/15 10:37:03;;;;;;;58.22;28.30;;;7.90;67.40;;;;;;4977363;28;20019;-67
2024/01/15 10:39:30;;;;;;;59.65;27.15;;;7.90;66.80;;;;;;4977821;28;20023;-67
2024/01/15 10:41:56;;;;;;;60.35;29.02;;;7.90;66.90;;;;;;4977460;28;20017;-66
2024/01/15 10:44:22;;;;;;;57.58;28.75;;;8.10;66.50;;;;;;4977780;28;20360;-66
2024/01/15 10:46:48;;;;;;;63.83;30.98;;;8.10;66.40;;;;;;4977793;28;20038;-66
2024/01/15 10:49:14;;;;;;;63.55;29.48;;;8.20;66.20;;;;;;4977329;28;20026;-68
2024/01/15 10:51:41;;;;;;;58.92;30.00;;;8.20;66.50;;;;;;4976744;28;20051;-68
2024/01/15 10:54:10;;;;;;;53.50;26.90;;;8.30;66.50;;;;;;4977367;28;20027;-67
2024/01/15 10:56:37;;;;;;;61.53;31.55;;;8.40;66.00;;;;;;4977237;28;20073;-68
2024/01/15 10:59:04;;;;;;;52.65;26.33;;;8.40;65.30;;;;;;4977248;28;20118;-67
2024/01/15 11:01:31;;;;;;;54.88;29.55;;;8.40;65.50;;;;;;4978285;28;20042;-67
2024/01/15 11:03:57;;;;;;;59.55;27.27;;;8.50;65.20;;;;;;4977691;28;20425;-66
2024/01/15 11:06:24;;;;;;;55.25;26.52;;;8.50;65.30;;;;;;4978633;28;20441;-67
2024/01/15 11:08:52;;;;;;;57.42;29.23;;;8.60;65.30;;;;;;4977122;28;20059;-68
2024/01/15 11:11:18;;;;;;;58.65;29.83;;;8.60;65.40;;;;;;4975762;28;20023;-66
2024/01/15 11:13:49;;;;;;;62.88;30.63;;;8.70;64.40;;;;;;4976745;28;20034;-67
2024/01/15 11:16:15;;;;;;;67.22;33.78;;;8.70;65.00;;;;;;4976493;28;20050;-67
2024/01/15 11:19:02;;;;;;;59.38;30.48;;;8.70;63.90;;;;;;4976673;28;20082;-68
2024/01/15 11:21:31;;;;;;;59.83;31.25;;;8.80;64.30;;;;;;4976763;28;20019;-66
2024/01/15 11:24:01;;;;;;;68.15;32.95;;;8.80;64.10;;;;;;4976529;28;20038;-66
2024/01/15 11:26:28;;;;;;;57.70;29.83;;;8.80;64.60;;;;;;4976564;28;20019;-66
2024/01/15 11:29:01;;;;;;;61.72;32.38;;;8.80;64.20;;;;;;4976490;28;20038;-68
2024/01/15 11:31:47;;;;;;;65.18;31.00;;;8.80;64.50;;;;;;4976754;28;20057;-68
2024/01/15 11:34:13;;;;;;;56.03;26.20;;;8.90;64.60;;;;;;4976964;28;20058;-65
2024/01/15 11:36:54;;;;;;;54.92;29.95;;;8.90;64.20;;;;;;4976994;28;20389;-73
2024/01/15 11:39:28;;;;;;;57.85;28.92;;;9.00;63.40;;;;;;4976912;28;20031;-73
2024/01/15 11:41:59;;;;;;;59.28;29.02;;;9.10;63.70;;;;;;4975947;28;20101;-73
2024/01/15 11:44:25;;;;;;;59.90;30.90;;;9.10;63.70;;;;;;4975545;28;20041;-73
2024/01/15 11:47:05;;;;;;;56.83;29.73;;;9.10;63.30;;;;;;4976627;28;20035;-73
2024/01/15 11:49:40;;;;;;;57.30;28.58;;;9.20;63.40;;;;;;4976682;28;20019;-73
2024/01/15 11:52:07;;;;;;;54.10;26.92;;;9.20;63.60;;;;;;5238986;23;20051;-67
2024/01/15 11:54:41;;;;;;;58.97;29.92;;;9.30;63.20;;;;;;4976286;28;20027;-66
2024/01/15 11:57:19;;;;;;;59.83;31.20;;;9.30;62.50;;;;;;4975479;28;20098;-68
2024/01/15 11:59:45;;;;;;;62.47;31.70;;;9.40;63.00;;;;;;4976214;28;20042;-66
2024/01/15 12:02:12;;;;;;;57.00;30.30;;;9.40;63.30;;;;;;4976164;28;20019;-68
2024/01/15 12:04:39;;;;;;;56.30;29.42;;;9.40;62.70;;;;;;4976408;28;20050;-68
2024/01/15 12:07:05;;;;;;;55.40;29.05;;;9.40;62.30;;;;;;4976331;28;20327;-68
2024/01/15 12:09:32;;;;;;;57.10;29.55;;;9.40;62.60;;;;;;4976448;28;20468;-67
2024/01/15 12:12:12;;;;;;;60.80;30.80;;;9.50;62.40;;;;;;4975032;28;20357;-66
2024/01/15 12:14:38;;;;;;;61.58;30.98;;;9.50;62.50;;;;;;4975214;28;20023;-68
2024/01/15 12:17:04;;;;;;;56.05;29.90;;;9.50;62.30;;;;;;4976331;28;20023;-69
2024/01/15 12:19:30;;;;;;;54.10;27.38;;;9.60;62.70;;;;;;4976576;28;20483;-65
2024/01/15 12:21:56;;;;;;;59.67;30.33;;;9.60;62.40;;;;;;4975837;28;20023;-67
2024/01/15 12:24:22;;;;;;;59.65;31.27;;;9.60;62.20;;;;;;4976465;28;20050;-66
2024/01/15 12:26:48;;;;;;;59.85;29.65;;;9.60;61.60;;;;;;4976017;28;20065;-69
2024/01/15 12:29:17;;;;;;;56.90;29.15;;;9.60;61.30;;;;;;4976449;28;20027;-69
2024/01/15 12:31:43;;;;;;;62.45;32.25;;;9.70;62.00;;;;;;4976162;28;20101;-66
2024/01/15 12:34:09;;;;;;;56.40;27.35;;;9.60;61.90;;;;;;4975957;28;20050;-66
2024/01/15 12:36:35;;;;;;;65.75;33.33;;;9.60;62.10;;;;;;4976172;28;20022;-69
2024/01/15 12:39:01;;;;;;;63.83;32.13;;;9.60;60.60;;;;;;4976404;28;20349;-67